Miniota, Canada
Current Conditions -  °F | °C
As of 9:00 PM on Sunday 21 Dec 2014 (Local Time) from CYBR Reporting Station
Haze Haze  
Wind Chill: 16°   Ceiling: 300
Heat Index: 27°   Visibility: 2mi
Dew Point: 25°   Wind: 13mph
Humidity: 93%   Direction: 90°E
Pressure: 29.5"   Gusts: NA
Location:  50.13°N, 101.03°W
Report Text: CYBR 220300Z 09011KT 2SM BR OVC003 M03/M04 A2950 RMK FG4ST4 SLP013
Loading
Personal Weather Stations






























Interactive Weather Map New forecast layout! Learn more

10-Day Weather Forecast

Advertisements
Track Severe Weather on mobile